createdAt,value
2018-08-19T00:00:12.045Z,1016.21
2018-08-19T00:00:38.198Z,1016.17
2018-08-19T00:01:04.336Z,1016.16
2018-08-19T00:01:30.473Z,1016.17
2018-08-19T00:01:56.605Z,1016.17
2018-08-19T00:02:22.773Z,1016.15
2018-08-19T00:02:48.904Z,1016.16
2018-08-19T00:03:15.048Z,1016.16
2018-08-19T00:03:41.182Z,1016.18
2018-08-19T00:04:07.317Z,1016.13
2018-08-19T00:04:33.455Z,1016.11
2018-08-19T00:04:59.593Z,1016.15
2018-08-19T00:05:25.726Z,1016.13
2018-08-19T00:05:51.865Z,1016.14
2018-08-19T00:06:17.993Z,1016.13
2018-08-19T00:06:44.128Z,1016.1
2018-08-19T00:07:10.298Z,1016.12
2018-08-19T00:07:36.429Z,1016.09
2018-08-19T00:08:02.564Z,1016.09
2018-08-19T00:08:28.696Z,1016.09
2018-08-19T00:08:54.827Z,1016.08
2018-08-19T00:09:20.970Z,1016.11
2018-08-19T00:09:47.104Z,1016.09
2018-08-19T00:10:13.242Z,1016.05
2018-08-19T00:10:39.407Z,1016.09
2018-08-19T00:11:05.545Z,1016.09
2018-08-19T00:11:31.678Z,1016.08
2018-08-19T00:11:57.807Z,1016.12
2018-08-19T00:12:23.974Z,1016.1
2018-08-19T00:12:50.109Z,1016.11
2018-08-19T00:13:16.245Z,1016.08
2018-08-19T00:13:42.377Z,1016.11
2018-08-19T00:14:08.514Z,1016.08
2018-08-19T00:14:34.643Z,1016.05
2018-08-19T00:15:00.803Z,1016.11
2018-08-19T00:15:26.936Z,1016.11
2018-08-19T00:15:53.069Z,1016.09
2018-08-19T00:16:19.202Z,1016.11
2018-08-19T00:16:45.371Z,1016.11
2018-08-19T00:17:11.508Z,1016.11
2018-08-19T00:17:37.640Z,1016.1
2018-08-19T00:18:03.785Z,1016.07
2018-08-19T00:18:29.917Z,1016.12
2018-08-19T00:18:56.051Z,1016.1
2018-08-19T00:19:22.189Z,1016.11
2018-08-19T00:19:48.329Z,1016.09
2018-08-19T00:20:14.466Z,1016.13
2018-08-19T00:20:40.599Z,1016.11
2018-08-19T00:21:06.768Z,1016.09
2018-08-19T00:21:32.898Z,1016.08
2018-08-19T00:21:59.033Z,1016.12
2018-08-19T00:22:25.172Z,1016.13
2018-08-19T00:22:51.302Z,1016.11
2018-08-19T00:23:17.458Z,1016.12
2018-08-19T00:23:43.598Z,1016.11
2018-08-19T00:24:09.738Z,1016.09
2018-08-19T00:24:35.872Z,1016.11
2018-08-19T00:25:02.009Z,1016.11
2018-08-19T00:25:28.141Z,1016.14
2018-08-19T00:25:54.278Z,1016.13
2018-08-19T00:26:20.415Z,1016.12
2018-08-19T00:26:46.549Z,1016.15
2018-08-19T00:27:12.689Z,1016.12
2018-08-19T00:27:38.821Z,1016.11
2018-08-19T00:28:04.962Z,1016.13
2018-08-19T00:28:31.092Z,1016.11
2018-08-19T00:28:57.230Z,1016.1
2018-08-19T00:29:23.366Z,1016.13
2018-08-19T00:29:49.495Z,1016.12
2018-08-19T00:30:15.659Z,1016.08
2018-08-19T00:30:41.794Z,1016.07
2018-08-19T00:31:07.933Z,1016.08
2018-08-19T00:31:34.068Z,1016.05
2018-08-19T00:32:00.202Z,1015.99
2018-08-19T00:32:26.364Z,1016.04
2018-08-19T00:32:52.536Z,1016.04
2018-08-19T00:33:18.674Z,1015.99
2018-08-19T00:33:44.836Z,1016.05
2018-08-19T00:34:10.975Z,1016.07
2018-08-19T00:34:37.111Z,1016.05
2018-08-19T00:35:03.251Z,1016.03
2018-08-19T00:35:29.383Z,1016.04
2018-08-19T00:35:55.520Z,1016.01
2018-08-19T00:36:21.669Z,1016.04
2018-08-19T00:36:47.799Z,1016.06
2018-08-19T00:37:13.942Z,1016.05
2018-08-19T00:37:40.068Z,1016.07
2018-08-19T00:38:06.213Z,1016.06
2018-08-19T00:38:32.339Z,1016.1
2018-08-19T00:38:58.501Z,1016.08
2018-08-19T00:39:24.632Z,1016.06
2018-08-19T00:39:50.764Z,1016.07
2018-08-19T00:40:16.901Z,1016.09
2018-08-19T00:40:43.037Z,1016.07
2018-08-19T00:41:09.188Z,1016.08
2018-08-19T00:41:35.332Z,1016.07
2018-08-19T00:42:01.493Z,1016.08
2018-08-19T00:42:27.631Z,1016.1
2018-08-19T00:42:53.792Z,1016.08
2018-08-19T00:43:19.920Z,1016.11
2018-08-19T00:43:46.063Z,1016.1
2018-08-19T00:44:12.193Z,1016.07
2018-08-19T00:44:38.342Z,1016.07
2018-08-19T00:45:04.473Z,1016.05
2018-08-19T00:45:30.606Z,1016.09
2018-08-19T00:45:56.743Z,1016.09
2018-08-19T00:46:22.875Z,1016.08
2018-08-19T00:46:49.011Z,1016.05
2018-08-19T00:47:15.147Z,1016.08
2018-08-19T00:47:41.287Z,1016.08
2018-08-19T00:48:07.443Z,1016.08
2018-08-19T00:48:33.579Z,1016.05
2018-08-19T00:48:59.715Z,1016.08
2018-08-19T00:49:25.844Z,1016.05
2018-08-19T00:49:52.008Z,1016.03
2018-08-19T00:50:18.142Z,1016.06
2018-08-19T00:50:44.300Z,1016.08
2018-08-19T00:51:10.443Z,1016.05
2018-08-19T00:51:36.600Z,1016.06
2018-08-19T00:52:02.737Z,1016.05
2018-08-19T00:52:28.896Z,1016.07
2018-08-19T00:52:55.037Z,1016.05
2018-08-19T00:53:21.195Z,1016.04
2018-08-19T00:53:47.329Z,1016.03
2018-08-19T00:54:13.461Z,1016.04
2018-08-19T00:54:39.599Z,1016.05
2018-08-19T00:55:05.775Z,1016.05
2018-08-19T00:55:31.875Z,1016.02
2018-08-19T00:55:58.033Z,1016.02
2018-08-19T00:56:24.176Z,1016.04
2018-08-19T00:56:50.310Z,1016.01
2018-08-19T00:57:16.448Z,1016.01
2018-08-19T00:57:42.592Z,1016
2018-08-19T00:58:08.726Z,1016
2018-08-19T00:58:34.871Z,1016
2018-08-19T00:59:01.050Z,1016.01
2018-08-19T00:59:27.185Z,1016.01
2018-08-19T00:59:53.327Z,1016.02
2018-08-19T01:00:19.464Z,1016.01
2018-08-19T01:00:45.603Z,1015.96
2018-08-19T01:01:11.740Z,1016.01
2018-08-19T01:01:37.931Z,1016.02
2018-08-19T01:02:04.067Z,1016.01
2018-08-19T01:02:30.215Z,1015.98
2018-08-19T01:02:56.379Z,1015.99
2018-08-19T01:03:22.517Z,1015.96
2018-08-19T01:03:48.655Z,1015.99
2018-08-19T01:04:14.819Z,1016.01
2018-08-19T01:04:40.952Z,1015.97
2018-08-19T01:05:07.085Z,1015.93
2018-08-19T01:05:33.225Z,1015.96
2018-08-19T01:05:59.360Z,1015.94
2018-08-19T01:06:25.501Z,1015.97
2018-08-19T01:06:51.664Z,1015.93
2018-08-19T01:07:17.796Z,1015.92
2018-08-19T01:07:43.933Z,1015.94
2018-08-19T01:08:10.072Z,1015.95
2018-08-19T01:08:36.204Z,1015.96
2018-08-19T01:09:02.339Z,1015.94
2018-08-19T01:09:28.471Z,1015.96
2018-08-19T01:09:54.609Z,1015.95
2018-08-19T01:10:20.770Z,1015.93
2018-08-19T01:10:46.912Z,1015.96
2018-08-19T01:11:13.046Z,1015.95
2018-08-19T01:11:39.181Z,1015.93
2018-08-19T01:12:05.310Z,1015.97
2018-08-19T01:12:31.452Z,1015.95
2018-08-19T01:12:57.586Z,1015.94
2018-08-19T01:13:23.724Z,1015.98
2018-08-19T01:13:49.869Z,1015.99
2018-08-19T01:14:16.010Z,1015.95
2018-08-19T01:14:42.152Z,1015.96
2018-08-19T01:15:08.284Z,1015.97
2018-08-19T01:15:34.418Z,1015.95
2018-08-19T01:16:00.583Z,1015.96
2018-08-19T01:16:26.743Z,1015.92
2018-08-19T01:16:52.875Z,1015.95
2018-08-19T01:17:19.015Z,1015.97
2018-08-19T01:17:45.149Z,1015.93
2018-08-19T01:18:11.287Z,1015.94
2018-08-19T01:18:37.418Z,1015.91
2018-08-19T01:19:03.555Z,1015.93
2018-08-19T01:19:29.690Z,1015.91
2018-08-19T01:19:55.824Z,1015.93
2018-08-19T01:20:21.980Z,1015.91
2018-08-19T01:20:48.111Z,1015.93
2018-08-19T01:21:14.247Z,1015.95
2018-08-19T01:21:40.386Z,1015.93
2018-08-19T01:22:06.524Z,1015.93
2018-08-19T01:22:32.665Z,1015.92
2018-08-19T01:22:58.795Z,1015.92
2018-08-19T01:23:24.929Z,1015.91
2018-08-19T01:23:51.100Z,1015.91
2018-08-19T01:24:17.228Z,1015.93
2018-08-19T01:24:43.365Z,1015.91
2018-08-19T01:25:09.504Z,1015.92
2018-08-19T01:25:35.665Z,1015.92
2018-08-19T01:26:01.793Z,1015.92
2018-08-19T01:26:27.928Z,1015.92
2018-08-19T01:26:54.089Z,1015.92
2018-08-19T01:27:20.221Z,1015.92
2018-08-19T01:27:46.382Z,1015.96
2018-08-19T01:28:12.522Z,1015.94
2018-08-19T01:28:38.648Z,1015.92
2018-08-19T01:29:04.791Z,1015.92
2018-08-19T01:29:30.923Z,1015.94
2018-08-19T01:29:57.060Z,1015.92
2018-08-19T01:30:23.198Z,1015.92
2018-08-19T01:30:49.356Z,1015.92
2018-08-19T01:31:15.520Z,1015.9
2018-08-19T01:31:41.651Z,1015.91
2018-08-19T01:32:07.780Z,1015.9
2018-08-19T01:32:33.919Z,1015.95
2018-08-19T01:33:00.062Z,1015.93
2018-08-19T01:33:26.218Z,1015.91
2018-08-19T01:33:52.379Z,1015.91
2018-08-19T01:34:18.522Z,1015.9
2018-08-19T01:34:44.648Z,1015.9
2018-08-19T01:35:10.783Z,1015.88
2018-08-19T01:35:36.917Z,1015.89
2018-08-19T01:36:03.076Z,1015.86
2018-08-19T01:36:29.208Z,1015.86
2018-08-19T01:36:55.355Z,1015.87
2018-08-19T01:37:21.512Z,1015.85
2018-08-19T01:37:47.648Z,1015.84
2018-08-19T01:38:13.791Z,1015.84
2018-08-19T01:38:39.943Z,1015.83
2018-08-19T01:39:06.078Z,1015.83
2018-08-19T01:39:32.215Z,1015.82
2018-08-19T01:39:58.354Z,1015.84
2018-08-19T01:40:24.487Z,1015.85
2018-08-19T01:40:50.627Z,1015.83
2018-08-19T01:41:16.762Z,1015.83
2018-08-19T01:41:42.905Z,1015.85
2018-08-19T01:42:09.040Z,1015.85
2018-08-19T01:42:35.170Z,1015.8
2018-08-19T01:43:01.312Z,1015.82
2018-08-19T01:43:27.454Z,1015.79
2018-08-19T01:43:53.605Z,1015.81
2018-08-19T01:44:19.748Z,1015.8
2018-08-19T01:44:45.902Z,1015.82
2018-08-19T01:45:12.044Z,1015.79
2018-08-19T01:45:38.205Z,1015.79
2018-08-19T01:46:04.350Z,1015.79
2018-08-19T01:46:30.479Z,1015.79
2018-08-19T01:46:56.641Z,1015.82
2018-08-19T01:47:22.780Z,1015.8
2018-08-19T01:47:48.909Z,1015.78
2018-08-19T01:48:15.062Z,1015.8
2018-08-19T01:48:41.204Z,1015.79
2018-08-19T01:49:07.341Z,1015.77
2018-08-19T01:49:33.479Z,1015.76
2018-08-19T01:49:59.634Z,1015.77
2018-08-19T01:50:25.777Z,1015.75
2018-08-19T01:50:51.929Z,1015.74
2018-08-19T01:51:18.055Z,1015.79
2018-08-19T01:51:44.193Z,1015.74
2018-08-19T01:52:10.328Z,1015.76
2018-08-19T01:52:36.495Z,1015.74
2018-08-19T01:53:02.655Z,1015.77
2018-08-19T01:53:28.789Z,1015.79
2018-08-19T01:53:54.946Z,1015.78
2018-08-19T01:54:21.131Z,1015.74
2018-08-19T01:54:47.290Z,1015.8
2018-08-19T01:55:13.430Z,1015.74
2018-08-19T01:55:39.578Z,1015.78
2018-08-19T01:56:05.715Z,1015.76
2018-08-19T01:56:31.882Z,1015.74
2018-08-19T01:56:58.015Z,1015.76
2018-08-19T01:57:24.170Z,1015.78
2018-08-19T01:57:50.309Z,1015.78
2018-08-19T01:58:16.448Z,1015.73
2018-08-19T01:58:42.579Z,1015.74
2018-08-19T01:59:08.719Z,1015.75
2018-08-19T01:59:34.860Z,1015.76
2018-08-19T02:00:01.014Z,1015.77
2018-08-19T02:00:27.149Z,1015.73
2018-08-19T02:00:53.284Z,1015.74
2018-08-19T02:01:19.423Z,1015.73
2018-08-19T02:01:45.561Z,1015.72
2018-08-19T02:02:11.692Z,1015.74
2018-08-19T02:02:37.830Z,1015.72
2018-08-19T02:03:03.982Z,1015.7
2018-08-19T02:03:30.114Z,1015.73
2018-08-19T02:03:56.251Z,1015.73
2018-08-19T02:04:22.409Z,1015.72
2018-08-19T02:04:48.548Z,1015.73
2018-08-19T02:05:14.674Z,1015.74
2018-08-19T02:05:40.838Z,1015.72
2018-08-19T02:06:06.980Z,1015.69
2018-08-19T02:06:33.112Z,1015.71
2018-08-19T02:06:59.252Z,1015.72
2018-08-19T02:07:25.393Z,1015.71
2018-08-19T02:07:51.526Z,1015.73
2018-08-19T02:08:17.680Z,1015.72
2018-08-19T02:08:43.812Z,1015.72
2018-08-19T02:09:09.957Z,1015.71
2018-08-19T02:09:36.091Z,1015.7
2018-08-19T02:10:02.225Z,1015.71
2018-08-19T02:10:28.363Z,1015.73
2018-08-19T02:10:54.497Z,1015.71
2018-08-19T02:11:20.636Z,1015.68
2018-08-19T02:11:46.772Z,1015.72
2018-08-19T02:12:12.913Z,1015.69
2018-08-19T02:12:39.043Z,1015.69
2018-08-19T02:13:05.187Z,1015.71
2018-08-19T02:13:31.326Z,1015.67
2018-08-19T02:13:57.456Z,1015.66
2018-08-19T02:14:23.596Z,1015.68
2018-08-19T02:14:49.757Z,1015.67
2018-08-19T02:15:15.926Z,1015.65
2018-08-19T02:15:42.061Z,1015.68
2018-08-19T02:16:08.194Z,1015.64
2018-08-19T02:16:34.334Z,1015.65
2018-08-19T02:17:00.486Z,1015.68
2018-08-19T02:17:26.628Z,1015.64
2018-08-19T02:17:52.762Z,1015.62
2018-08-19T02:18:18.918Z,1015.63
2018-08-19T02:18:45.049Z,1015.64
2018-08-19T02:19:11.221Z,1015.61
2018-08-19T02:19:37.354Z,1015.64
2018-08-19T02:20:03.486Z,1015.67
2018-08-19T02:20:29.638Z,1015.65
2018-08-19T02:20:55.792Z,1015.64
2018-08-19T02:21:21.924Z,1015.68
2018-08-19T02:21:48.084Z,1015.65
2018-08-19T02:22:14.246Z,1015.67
2018-08-19T02:22:40.383Z,1015.66
2018-08-19T02:23:06.524Z,1015.69
2018-08-19T02:23:32.709Z,1015.66
2018-08-19T02:23:58.867Z,1015.66
2018-08-19T02:24:25.022Z,1015.63
2018-08-19T02:24:51.158Z,1015.68
2018-08-19T02:25:17.299Z,1015.66
2018-08-19T02:25:43.430Z,1015.64
2018-08-19T02:26:09.593Z,1015.65
2018-08-19T02:26:35.725Z,1015.61
2018-08-19T02:27:01.861Z,1015.6
2018-08-19T02:27:27.999Z,1015.62
2018-08-19T02:27:54.162Z,1015.61
2018-08-19T02:28:20.297Z,1015.64
2018-08-19T02:28:46.435Z,1015.63
2018-08-19T02:29:12.574Z,1015.62
2018-08-19T02:29:38.705Z,1015.61
2018-08-19T02:30:04.853Z,1015.66
2018-08-19T02:30:30.981Z,1015.63
2018-08-19T02:30:57.169Z,1015.66
2018-08-19T02:31:23.334Z,1015.66
2018-08-19T02:31:49.489Z,1015.67
2018-08-19T02:32:15.621Z,1015.64
2018-08-19T02:32:41.760Z,1015.65
2018-08-19T02:33:07.922Z,1015.67
2018-08-19T02:33:34.058Z,1015.64
2018-08-19T02:34:00.198Z,1015.68
2018-08-19T02:34:26.323Z,1015.66
2018-08-19T02:34:52.493Z,1015.63
2018-08-19T02:35:18.671Z,1015.63
2018-08-19T02:35:44.803Z,1015.67
2018-08-19T02:36:10.935Z,1015.67
2018-08-19T02:36:37.079Z,1015.67
2018-08-19T02:37:03.233Z,1015.66
2018-08-19T02:37:29.364Z,1015.64
2018-08-19T02:37:55.497Z,1015.66
2018-08-19T02:38:21.660Z,1015.65
2018-08-19T02:38:47.815Z,1015.67
2018-08-19T02:39:13.947Z,1015.67
2018-08-19T02:39:40.089Z,1015.66
2018-08-19T02:40:06.229Z,1015.68
2018-08-19T02:40:32.382Z,1015.68
2018-08-19T02:40:58.524Z,1015.7
2018-08-19T02:41:24.656Z,1015.69
2018-08-19T02:41:50.794Z,1015.73
2018-08-19T02:42:16.940Z,1015.7
2018-08-19T02:42:43.074Z,1015.71
2018-08-19T02:43:09.207Z,1015.73
2018-08-19T02:43:35.341Z,1015.73
2018-08-19T02:44:01.475Z,1015.73
2018-08-19T02:44:27.617Z,1015.71
2018-08-19T02:44:53.770Z,1015.69
2018-08-19T02:45:19.900Z,1015.69
2018-08-19T02:45:46.063Z,1015.7
2018-08-19T02:46:12.206Z,1015.67
2018-08-19T02:46:38.360Z,1015.66
2018-08-19T02:47:04.495Z,1015.7
2018-08-19T02:47:30.624Z,1015.67
2018-08-19T02:47:56.780Z,1015.69
2018-08-19T02:48:22.922Z,1015.68
2018-08-19T02:48:49.054Z,1015.7
2018-08-19T02:49:15.266Z,1015.67
2018-08-19T02:49:41.418Z,1015.67
2018-08-19T02:50:07.563Z,1015.63
2018-08-19T02:50:33.733Z,1015.67
2018-08-19T02:50:59.918Z,1015.63
2018-08-19T02:51:26.051Z,1015.65
2018-08-19T02:51:52.203Z,1015.64
2018-08-19T02:52:18.373Z,1015.61
2018-08-19T02:52:44.504Z,1015.63
2018-08-19T02:53:10.657Z,1015.65
2018-08-19T02:53:36.791Z,1015.63
2018-08-19T02:54:02.926Z,1015.61
2018-08-19T02:54:29.083Z,1015.64
2018-08-19T02:54:55.261Z,1015.61
2018-08-19T02:55:21.415Z,1015.6
2018-08-19T02:55:47.551Z,1015.63
2018-08-19T02:56:13.700Z,1015.58
2018-08-19T02:56:39.866Z,1015.62
2018-08-19T02:57:06.026Z,1015.57
2018-08-19T02:57:32.185Z,1015.58
2018-08-19T02:57:58.317Z,1015.58
2018-08-19T02:58:24.455Z,1015.58
2018-08-19T02:58:50.595Z,1015.56
2018-08-19T02:59:16.726Z,1015.56
2018-08-19T02:59:42.885Z,1015.52
2018-08-19T03:00:09.046Z,1015.58
2018-08-19T03:00:35.184Z,1015.54
2018-08-19T03:01:01.352Z,1015.57
2018-08-19T03:01:27.513Z,1015.58
2018-08-19T03:01:53.673Z,1015.52
2018-08-19T03:02:19.829Z,1015.54
2018-08-19T03:02:46.031Z,1015.54
2018-08-19T03:03:12.158Z,1015.53
2018-08-19T03:03:38.300Z,1015.54
2018-08-19T03:04:04.431Z,1015.54
2018-08-19T03:04:30.565Z,1015.56
2018-08-19T03:04:56.703Z,1015.53
2018-08-19T03:05:22.867Z,1015.57
2018-08-19T03:05:49.003Z,1015.55
2018-08-19T03:06:15.159Z,1015.55
2018-08-19T03:06:41.266Z,1015.54
2018-08-19T03:07:07.407Z,1015.53
2018-08-19T03:07:33.534Z,1015.54
2018-08-19T03:07:59.666Z,1015.55
2018-08-19T03:08:25.809Z,1015.53
2018-08-19T03:08:51.978Z,1015.59
2018-08-19T03:09:18.126Z,1015.58
2018-08-19T03:09:44.290Z,1015.53
2018-08-19T03:10:10.422Z,1015.53
2018-08-19T03:10:36.562Z,1015.54
2018-08-19T03:11:02.727Z,1015.55
2018-08-19T03:11:28.858Z,1015.53
2018-08-19T03:11:54.999Z,1015.52
2018-08-19T03:12:21.132Z,1015.54
2018-08-19T03:12:47.297Z,1015.54
2018-08-19T03:13:13.432Z,1015.52
2018-08-19T03:13:39.586Z,1015.54
2018-08-19T03:14:05.723Z,1015.51
2018-08-19T03:14:31.875Z,1015.5
2018-08-19T03:14:58.026Z,1015.49
2018-08-19T03:15:24.192Z,1015.5
2018-08-19T03:15:50.329Z,1015.53
2018-08-19T03:16:16.459Z,1015.51
2018-08-19T03:16:42.596Z,1015.54
2018-08-19T03:17:08.733Z,1015.54
2018-08-19T03:17:34.882Z,1015.51
2018-08-19T03:18:01.048Z,1015.52
2018-08-19T03:18:27.186Z,1015.51
2018-08-19T03:18:53.317Z,1015.52
2018-08-19T03:19:19.451Z,1015.56
2018-08-19T03:19:45.583Z,1015.53
2018-08-19T03:20:11.726Z,1015.53
2018-08-19T03:20:37.884Z,1015.56
2018-08-19T03:21:04.021Z,1015.5
2018-08-19T03:21:30.151Z,1015.5
2018-08-19T03:21:56.283Z,1015.53
2018-08-19T03:22:22.414Z,1015.52
2018-08-19T03:22:48.554Z,1015.48
2018-08-19T03:23:14.679Z,1015.54
2018-08-19T03:23:40.815Z,1015.51
2018-08-19T03:24:06.998Z,1015.5
2018-08-19T03:24:33.137Z,1015.5
2018-08-19T03:24:59.274Z,1015.48
2018-08-19T03:25:25.412Z,1015.47
2018-08-19T03:25:51.626Z,1015.49
2018-08-19T03:26:17.725Z,1015.48
2018-08-19T03:26:43.865Z,1015.48
2018-08-19T03:27:10.025Z,1015.47
2018-08-19T03:27:36.163Z,1015.52
2018-08-19T03:28:02.322Z,1015.48
2018-08-19T03:28:28.456Z,1015.44
2018-08-19T03:28:54.625Z,1015.46
2018-08-19T03:29:20.762Z,1015.47
2018-08-19T03:29:46.900Z,1015.5
2018-08-19T03:30:13.034Z,1015.48
2018-08-19T03:30:39.192Z,1015.48
2018-08-19T03:31:05.417Z,1015.52
2018-08-19T03:31:31.667Z,1015.46
2018-08-19T03:31:57.756Z,1015.49
2018-08-19T03:32:23.892Z,1015.49
2018-08-19T03:32:50.030Z,1015.49
2018-08-19T03:33:16.194Z,1015.46
2018-08-19T03:33:42.352Z,1015.47
2018-08-19T03:34:08.505Z,1015.47
2018-08-19T03:34:34.699Z,1015.47
2018-08-19T03:35:00.849Z,1015.5
2018-08-19T03:35:26.984Z,1015.49
2018-08-19T03:35:53.146Z,1015.48
2018-08-19T03:36:19.305Z,1015.47
2018-08-19T03:36:45.440Z,1015.48
2018-08-19T03:37:11.574Z,1015.47
2018-08-19T03:37:37.706Z,1015.47
2018-08-19T03:38:03.934Z,1015.43
2018-08-19T03:38:30.003Z,1015.42
2018-08-19T03:38:56.138Z,1015.42
2018-08-19T03:39:22.274Z,1015.37
2018-08-19T03:39:48.400Z,1015.38
2018-08-19T03:40:14.574Z,1015.38
2018-08-19T03:40:40.688Z,1015.38
2018-08-19T03:41:06.820Z,1015.37
2018-08-19T03:41:32.981Z,1015.4
2018-08-19T03:41:59.129Z,1015.4
2018-08-19T03:42:25.293Z,1015.37
2018-08-19T03:42:51.432Z,1015.37
2018-08-19T03:43:17.566Z,1015.34
2018-08-19T03:43:43.692Z,1015.35
2018-08-19T03:44:09.825Z,1015.34
2018-08-19T03:44:35.981Z,1015.36
2018-08-19T03:45:02.120Z,1015.35
2018-08-19T03:45:28.259Z,1015.35
2018-08-19T03:45:54.396Z,1015.33
2018-08-19T03:46:20.580Z,1015.34
2018-08-19T03:46:46.712Z,1015.38
2018-08-19T03:47:12.840Z,1015.37
2018-08-19T03:47:39.008Z,1015.34
2018-08-19T03:48:05.147Z,1015.33
2018-08-19T03:48:31.286Z,1015.37
2018-08-19T03:48:57.441Z,1015.37
2018-08-19T03:49:23.604Z,1015.34
2018-08-19T03:49:49.745Z,1015.37
2018-08-19T03:50:15.880Z,1015.37
2018-08-19T03:50:42.040Z,1015.34
2018-08-19T03:51:08.171Z,1015.4
2018-08-19T03:51:34.353Z,1015.38
2018-08-19T03:52:00.491Z,1015.37
2018-08-19T03:52:26.651Z,1015.37
2018-08-19T03:52:52.787Z,1015.37
2018-08-19T03:53:18.920Z,1015.42
2018-08-19T03:53:45.079Z,1015.4
2018-08-19T03:54:11.192Z,1015.39
2018-08-19T03:54:37.350Z,1015.33
2018-08-19T03:55:03.503Z,1015.38
2018-08-19T03:55:29.644Z,1015.36
2018-08-19T03:55:55.805Z,1015.36
2018-08-19T03:56:21.939Z,1015.35
2018-08-19T03:56:48.080Z,1015.34
2018-08-19T03:57:14.216Z,1015.31
2018-08-19T03:57:40.349Z,1015.34
2018-08-19T03:58:06.529Z,1015.37
2018-08-19T03:58:32.687Z,1015.36
2018-08-19T03:58:58.827Z,1015.4
2018-08-19T03:59:24.977Z,1015.35
2018-08-19T03:59:51.135Z,1015.36
2018-08-19T04:00:17.275Z,1015.37
2018-08-19T04:00:43.435Z,1015.38
2018-08-19T04:01:09.572Z,1015.34
2018-08-19T04:01:35.704Z,1015.33
2018-08-19T04:02:01.890Z,1015.33
2018-08-19T04:02:28.022Z,1015.32
2018-08-19T04:02:54.156Z,1015.33
2018-08-19T04:03:20.293Z,1015.28
2018-08-19T04:03:46.433Z,1015.32
2018-08-19T04:04:12.573Z,1015.28
2018-08-19T04:04:38.733Z,1015.31
2018-08-19T04:05:04.879Z,1015.36
2018-08-19T04:05:31.007Z,1015.34
2018-08-19T04:05:57.142Z,1015.32
2018-08-19T04:06:23.301Z,1015.32
2018-08-19T04:06:49.438Z,1015.31
2018-08-19T04:07:15.586Z,1015.32
2018-08-19T04:07:41.723Z,1015.32
2018-08-19T04:08:07.865Z,1015.35
2018-08-19T04:08:34.030Z,1015.36
2018-08-19T04:09:00.187Z,1015.33
2018-08-19T04:09:26.348Z,1015.35
2018-08-19T04:09:52.508Z,1015.37
2018-08-19T04:10:18.643Z,1015.41
2018-08-19T04:10:44.784Z,1015.35
2018-08-19T04:11:10.965Z,1015.39
2018-08-19T04:11:37.104Z,1015.38
2018-08-19T04:12:03.263Z,1015.38
2018-08-19T04:12:29.455Z,1015.39
2018-08-19T04:12:55.584Z,1015.36
2018-08-19T04:13:21.727Z,1015.36
2018-08-19T04:13:47.862Z,1015.36
2018-08-19T04:14:14.003Z,1015.37
2018-08-19T04:14:40.140Z,1015.36
2018-08-19T04:15:06.273Z,1015.34
2018-08-19T04:15:32.429Z,1015.36
2018-08-19T04:15:58.568Z,1015.34
2018-08-19T04:16:24.719Z,1015.32
2018-08-19T04:16:50.894Z,1015.36
2018-08-19T04:17:17.030Z,1015.32
2018-08-19T04:17:43.188Z,1015.33
2018-08-19T04:18:09.326Z,1015.32
2018-08-19T04:18:35.509Z,1015.32
2018-08-19T04:19:01.669Z,1015.31
2018-08-19T04:19:27.796Z,1015.37
2018-08-19T04:19:53.960Z,1015.37
2018-08-19T04:20:20.142Z,1015.34
2018-08-19T04:20:46.312Z,1015.37
2018-08-19T04:21:12.441Z,1015.38
2018-08-19T04:21:38.584Z,1015.35
2018-08-19T04:22:04.752Z,1015.37
2018-08-19T04:22:30.890Z,1015.42
2018-08-19T04:22:57.051Z,1015.38
2018-08-19T04:23:23.211Z,1015.39
2018-08-19T04:23:49.359Z,1015.37
2018-08-19T04:24:15.518Z,1015.39
2018-08-19T04:24:41.661Z,1015.42
2018-08-19T04:25:07.796Z,1015.42
2018-08-19T04:25:33.933Z,1015.44
2018-08-19T04:26:00.067Z,1015.44
2018-08-19T04:26:26.227Z,1015.43
2018-08-19T04:26:52.383Z,1015.45
2018-08-19T04:27:18.516Z,1015.43
2018-08-19T04:27:44.674Z,1015.43
2018-08-19T04:28:10.810Z,1015.42
2018-08-19T04:28:36.973Z,1015.46
2018-08-19T04:29:03.109Z,1015.42
2018-08-19T04:29:29.248Z,1015.43
2018-08-19T04:29:55.412Z,1015.44
2018-08-19T04:30:21.572Z,1015.43
2018-08-19T04:30:47.716Z,1015.44
2018-08-19T04:31:13.848Z,1015.46
2018-08-19T04:31:39.989Z,1015.44
2018-08-19T04:32:06.115Z,1015.43
2018-08-19T04:32:32.249Z,1015.42
2018-08-19T04:32:58.409Z,1015.46
2018-08-19T04:33:24.553Z,1015.4
2018-08-19T04:33:50.680Z,1015.38
2018-08-19T04:34:16.836Z,1015.4
2018-08-19T04:34:42.975Z,1015.44
2018-08-19T04:35:09.112Z,1015.44
2018-08-19T04:35:35.288Z,1015.41
2018-08-19T04:36:01.451Z,1015.42
2018-08-19T04:36:27.587Z,1015.42
2018-08-19T04:36:53.723Z,1015.41
2018-08-19T04:37:19.870Z,1015.38
2018-08-19T04:37:46.003Z,1015.41
2018-08-19T04:38:12.141Z,1015.36
2018-08-19T04:38:38.284Z,1015.38
2018-08-19T04:39:04.446Z,1015.41
2018-08-19T04:39:30.624Z,1015.41
2018-08-19T04:39:56.788Z,1015.41
2018-08-19T04:40:22.936Z,1015.4
2018-08-19T04:40:49.102Z,1015.38
2018-08-19T04:41:15.278Z,1015.38
2018-08-19T04:41:41.416Z,1015.35
2018-08-19T04:42:07.580Z,1015.36
2018-08-19T04:42:33.695Z,1015.38
2018-08-19T04:42:59.833Z,1015.34
2018-08-19T04:43:25.972Z,1015.37
2018-08-19T04:43:52.129Z,1015.37
2018-08-19T04:44:18.264Z,1015.34
2018-08-19T04:44:44.448Z,1015.37
2018-08-19T04:45:10.586Z,1015.36
2018-08-19T04:45:36.722Z,1015.41
2018-08-19T04:46:02.852Z,1015.36
2018-08-19T04:46:28.988Z,1015.37
2018-08-19T04:46:55.129Z,1015.37
2018-08-19T04:47:21.263Z,1015.39
2018-08-19T04:47:47.412Z,1015.41
2018-08-19T04:48:13.553Z,1015.4
2018-08-19T04:48:39.706Z,1015.39
2018-08-19T04:49:05.868Z,1015.41
2018-08-19T04:49:32.028Z,1015.39
2018-08-19T04:49:58.212Z,1015.41
2018-08-19T04:50:24.355Z,1015.42
2018-08-19T04:50:50.494Z,1015.4
2018-08-19T04:51:16.625Z,1015.42
2018-08-19T04:51:42.804Z,1015.42
2018-08-19T04:52:08.939Z,1015.43
2018-08-19T04:52:35.080Z,1015.41
2018-08-19T04:53:01.212Z,1015.43
2018-08-19T04:53:27.354Z,1015.4
2018-08-19T04:53:53.481Z,1015.42
2018-08-19T04:54:19.640Z,1015.42
2018-08-19T04:54:45.782Z,1015.41
2018-08-19T04:55:11.935Z,1015.4
2018-08-19T04:55:38.069Z,1015.43
2018-08-19T04:56:04.232Z,1015.43
2018-08-19T04:56:30.368Z,1015.39
2018-08-19T04:56:56.533Z,1015.4
2018-08-19T04:57:22.691Z,1015.39
2018-08-19T04:57:48.858Z,1015.38
2018-08-19T04:58:15.000Z,1015.39
2018-08-19T04:58:41.134Z,1015.34
2018-08-19T04:59:07.336Z,1015.38
2018-08-19T04:59:33.468Z,1015.36
2018-08-19T04:59:59.609Z,1015.38
2018-08-19T05:00:25.770Z,1015.39
2018-08-19T05:00:51.906Z,1015.41
2018-08-19T05:01:18.059Z,1015.38
2018-08-19T05:01:44.195Z,1015.4
2018-08-19T05:02:10.480Z,1015.4
2018-08-19T05:02:36.639Z,1015.42
2018-08-19T05:03:02.667Z,1015.4
2018-08-19T05:03:28.812Z,1015.35
2018-08-19T05:03:54.968Z,1015.42
2018-08-19T05:04:21.123Z,1015.43
2018-08-19T05:04:47.256Z,1015.43
2018-08-19T05:05:13.417Z,1015.4
2018-08-19T05:05:39.553Z,1015.44
2018-08-19T05:06:05.690Z,1015.42
2018-08-19T05:06:31.876Z,1015.4
2018-08-19T05:06:58.012Z,1015.41
2018-08-19T05:07:24.141Z,1015.42
2018-08-19T05:07:50.345Z,1015.43
2018-08-19T05:08:16.570Z,1015.41
2018-08-19T05:08:42.602Z,1015.42
2018-08-19T05:09:08.735Z,1015.41
2018-08-19T05:09:34.874Z,1015.41
2018-08-19T05:10:01.008Z,1015.41
2018-08-19T05:10:27.142Z,1015.39
2018-08-19T05:10:53.303Z,1015.42
2018-08-19T05:11:19.462Z,1015.39
2018-08-19T05:11:45.597Z,1015.42
2018-08-19T05:12:11.757Z,1015.41
2018-08-19T05:12:37.946Z,1015.38
2018-08-19T05:13:04.034Z,1015.41
2018-08-19T05:13:30.199Z,1015.38
2018-08-19T05:13:56.335Z,1015.42
2018-08-19T05:14:22.523Z,1015.38
2018-08-19T05:14:48.659Z,1015.38
2018-08-19T05:15:14.795Z,1015.39
2018-08-19T05:15:40.924Z,1015.41
2018-08-19T05:16:07.060Z,1015.43
2018-08-19T05:16:33.202Z,1015.41
2018-08-19T05:16:59.340Z,1015.41